FW9443 Weather Reports


Display with metric or nautical units.
time (UTC)temp
F
wind
direction
speed
MPH
gust
MPH
rain 1hr
in
rain 24hr
in
rain mn
in
humidity
%
barometer
mb
20230208210120 48 341 0.0 2.0 0.00 0.01 0.01 70 1033.2
20230208205618 48 277 3.0 3.0 0.00 0.01 0.01 68 1033.1
20230208205117 48 315 1.0 2.0 0.00 0.01 0.01 69 1033.4
20230208204616 48 285 1.0 3.0 0.00 0.01 0.01 68 1033.2
20230208204115 48 309 2.0 3.0 0.00 0.01 0.01 67 1033.0
20230208203614 50 293 2.0 3.0 0.00 0.01 0.01 65 1033.2
20230208203114 50 263 2.0 5.0 0.00 0.01 0.01 66 1033.1
20230208202612 50 331 1.0 3.0 0.00 0.01 0.01 68 1033.2
20230208202112 49 318 0.0 2.0 0.00 0.01 0.01 65 1033.2
20230208201610 49 251 3.0 6.0 0.00 0.01 0.01 68 1033.2
20230208201110 49 293 2.0 3.0 0.00 0.01 0.01 68 1033.1
20230208200608 49 272 3.0 3.0 0.00 0.01 0.01 66 1033.1
20230208200106 48 291 1.0 3.0 0.00 0.01 0.01 68 1033.1
20230208195606 49 259 1.0 5.0 0.00 0.01 0.01 66 1033.1
20230208195105 49 252 1.0 3.0 0.00 0.01 0.01 68 1033.3
20230208194604 48 220 2.0 2.0 0.00 0.01 0.01 68 1033.3
20230208194104 48 155 3.0 3.0 0.00 0.01 0.01 69 1033.3
20230208193603 47 197 1.0 2.0 0.00 0.01 0.01 70 1033.3
20230208193101 47 265 2.0 2.0 0.00 0.01 0.01 71 1033.2
20230208192600 47 293 1.0 2.0 0.00 0.01 0.01 72 1033.2
20230208192100 47 320 0.0 2.0 0.00 0.01 0.01 71 1033.3
20230208191559 46 319 0.0 2.0 0.00 0.01 0.01 72 1033.4
20230208191058 46 177 3.0 6.0 0.00 0.01 0.01 72 1033.3
20230208190556 47 255 1.0 2.0 0.00 0.01 0.01 72 1033.2
20230208190055 47 182 1.0 3.0 0.00 0.01 0.01 73 1033.2
20230208185554 47 318 0.0 2.0 0.00 0.01 0.01 74 1033.2
20230208185053 48 306 0.0 3.0 0.00 0.01 0.01 72 1033.1
20230208184552 47 281 1.0 3.0 0.00 0.01 0.01 73 1033.4
20230208184052 47 200 4.0 5.0 0.00 0.01 0.01 72 1033.2
20230208183551 47 296 1.0 3.0 0.00 0.01 0.01 74 1033.2
20230208183050 46 236 1.0 5.0 0.00 0.01 0.01 76 1033.1
20230208182548 47 300 1.0 5.0 0.00 0.01 0.01 74 1033.4
20230208182047 47 191 3.0 8.0 0.00 0.01 0.01 74 1033.1
20230208181546 47 278 0.0 1.0 0.00 0.01 0.01 74 1033.2
20230208181046 48 16 0.0 1.0 0.00 0.01 0.01 74 1033.2
20230208180545 48 51 0.0 1.0 0.00 0.01 0.01 73 1033.3
20230208180043 47 37 0.0 1.0 0.00 0.01 0.01 74 1033.6
20230208175542 46 43 0.0 2.0 0.00 0.01 0.01 76 1033.4
20230208175041 46 38 0.0 2.0 0.00 0.01 0.01 77 1033.5
20230208174541 46 72 1.0 1.0 0.00 0.01 0.01 77 1033.4
20230208174040 45 50 1.0 2.0 0.00 0.01 0.01 78 1033.4
20230208173540 45 31 0.0 2.0 0.00 0.01 0.01 79 1033.2
20230208173039 45 47 1.0 1.0 0.07 0.01 0.01 77 1033.3
20230208172538 45 46 1.0 2.0 0.07 0.01 0.01 78 1033.2
20230208172036 44 27 0.0 1.0 0.00 0.00 0.00 81 1033.1
20230208171536 44 45 0.0 1.0 0.00 0.00 0.00 81 1033.0
20230208171037 44 161 0.0 1.0 0.00 0.00 0.00 81 1033.2
20230208170536 43 129 1.0 2.0 0.00 0.00 0.00 84 1032.9
20230208170035 41 45 1.0 1.0 0.00 0.00 0.00 88 1032.9
20230208165533 41 45 1.0 1.0 0.00 0.00 0.00 88 1032.9
20230208165032 41 45 1.0 1.0 0.00 0.00 0.00 88 1032.8
20230208164531 41 45 1.0 1.0 0.00 0.00 0.00 88 1032.8
20230208164030 41 45 1.0 1.0 0.00 0.00 0.00 88 1032.6
20230208163529 39 23 0.0 0.0 0.00 0.00 0.00 95 1032.7
20230208163029 39 24 0.0 0.0 0.00 0.00 0.00 98 1032.8
20230208162528 38 24 0.0 0.0 0.00 0.00 0.00 99 1032.8
20230208162027 37 24 0.0 0.0 0.00 0.00 0.00 99 1032.6
20230208161526 35 23 0.0 0.0 0.00 0.00 0.00 99 1032.7
20230208161025 34 23 0.0 0.0 0.00 0.00 0.00 99 1032.6
20230208160523 34 23 0.0 0.0 0.00 0.00 0.00 99 1032.7
20230208160021 34 23 0.0 0.0 0.00 0.00 0.00 99 1032.6
20230208155521 34 23 0.0 0.0 0.00 0.00 0.00 99 1032.5
20230208155020 35 23 0.0 0.0 0.00 0.00 0.00 99 1032.3
20230208154518 34 23 0.0 0.0 0.00 0.00 0.00 99 1032.1
20230208154017 34 23 0.0 0.0 0.00 0.00 0.00 98 1032.0
20230208153517 35 23 0.0 0.0 0.00 0.00 0.00 98 1032.1
20230208153015 35 23 0.0 0.0 0.00 0.00 0.00 98 1032.1
20230208152512 35 23 0.0 0.0 0.00 0.00 0.00 98 1031.9
20230208152011 35 24 0.0 0.0 0.00 0.00 0.00 98 1031.9
20230208151511 35 23 0.0 0.0 0.00 0.00 0.00 97 1031.7
20230208151010 35 23 0.0 0.0 0.00 0.00 0.00 97 1031.8
20230208150510 35 23 0.0 0.0 0.00 0.00 0.00 96 1031.8
20230208150009 35 23 0.0 0.0 0.00 0.00 0.00 96 1031.6
20230208145508 37 23 0.0 0.0 0.00 0.00 0.00 95 1031.5
20230208145005 37 23 0.0 0.0 0.00 0.00 0.00 95 1031.5
20230208144505 37 23 0.0 0.0 0.00 0.00 0.00 95 1031.5
20230208144004 38 325 0.0 0.0 0.00 0.00 0.00 92 1031.5
20230208143504 38 325 0.0 0.0 0.00 0.00 0.00 92 1031.3
20230208143003 38 325 0.0 0.0 0.00 0.00 0.00 92 1031.5
20230208142502 38 325 0.0 0.0 0.00 0.00 0.00 92 1031.4
20230208142001 38 325 0.0 0.0 0.00 0.00 0.00 92 1031.0
20230208141501 38 325 0.0 0.0 0.00 0.00 0.00 92 1031.1
20230208141001 38 325 0.0 0.0 0.00 0.00 0.00 92 1031.0
20230208140501 38 325 0.0 0.0 0.00 0.00 0.00 92 1031.2
20230208140000 38 325 0.0 0.0 0.00 0.00 0.00 92 1030.9
20230208135459 38 325 0.0 0.0 0.00 0.00 0.00 92 1030.9
20230208134957 38 325 0.0 0.0 0.00 0.00 0.00 92 1030.8
20230208134456 39 304 1.0 1.0 0.00 0.00 0.00 91 1031.1
20230208133955 39 296 0.0 2.0 0.00 0.00 0.00 91 1030.9
20230208133453 39 277 1.0 1.0 0.00 0.00 0.00 90 1030.7
20230208132953 39 279 2.0 3.0 0.00 0.00 0.00 90 1030.7
20230208132453 39 196 3.0 7.0 0.00 0.00 0.00 90 1030.5
20230208131953 39 272 2.0 2.0 0.00 0.00 0.00 91 1030.6
20230208131452 39 242 2.0 3.0 0.00 0.00 0.00 91 1030.7
20230208130951 39 218 1.0 2.0 0.00 0.00 0.00 91 1030.3
20230208130451 39 242 2.0 2.0 0.00 0.00 0.00 91 1030.6
20230208125950 39 219 3.0 3.0 0.00 0.00 0.00 92 1030.4
20230208125449 39 179 0.0 0.0 0.00 0.00 0.00 91 1030.3
20230208124948 39 219 2.0 3.0 0.00 0.00 0.00 90 1030.3
20230208124446 40 194 2.0 3.0 0.00 0.00 0.00 90 1030.4
20230208123945 40 262 2.0 3.0 0.00 0.00 0.00 89 1030.3
20230208123444 40 188 2.0 3.0 0.00 0.00 0.00 89 1030.1
20230208122943 40 212 5.0 7.0 0.00 0.00 0.00 89 1030.1
20230208122441 40 185 3.0 5.0 0.00 0.00 0.00 89 1030.0
20230208121940 40 175 5.0 6.0 0.00 0.00 0.00 90 1030.1
20230208121439 40 175 5.0 6.0 0.00 0.00 0.00 90 1030.1
20230208120939 40 175 5.0 6.0 0.00 0.00 0.00 90 1030.2
20230208120439 40 175 5.0 6.0 0.00 0.00 0.00 90 1029.8
20230208115938 40 175 5.0 6.0 0.00 0.00 0.00 90 1030.0
20230208115436 41 214 1.0 1.0 0.00 0.00 0.00 89 1029.8
20230208114935 41 214 1.0 1.0 0.00 0.00 0.00 89 1029.8
20230208114435 41 214 1.0 1.0 0.00 0.00 0.00 89 1029.8
20230208113934 41 214 1.0 1.0 0.00 0.00 0.00 89 1029.6
20230208113432 41 214 1.0 1.0 0.00 0.00 0.00 89 1029.9
20230208112931 41 180 3.0 3.0 0.00 0.00 0.00 89 1030.0
20230208112430 41 249 1.0 1.0 0.00 0.00 0.00 90 1029.7
20230208111929 41 194 2.0 2.0 0.00 0.00 0.00 90 1029.7
20230208111428 41 170 1.0 3.0 0.00 0.00 0.00 89 1029.4
20230208110928 41 102 2.0 3.0 0.00 0.00 0.00 89 1029.4
20230208110426 41 214 3.0 3.0 0.00 0.00 0.00 89 1029.5
20230208105925 41 241 3.0 3.0 0.00 0.00 0.00 89 1029.5
20230208105423 41 180 5.0 6.0 0.00 0.00 0.00 89 1029.7
20230208104921 41 170 2.0 3.0 0.00 0.00 0.00 90 1029.7
20230208104420 40 184 0.0 2.0 0.00 0.00 0.00 91 1029.6
20230208103919 40 232 1.0 1.0 0.00 0.00 0.00 92 1029.6
20230208103419 40 249 1.0 1.0 0.00 0.00 0.00 92 1029.3
20230208102919 39 261 1.0 1.0 0.00 0.00 0.00 93 1029.4
20230208102417 39 163 1.0 1.0 0.00 0.00 0.00 93 1029.3
20230208101916 39 93 1.0 2.0 0.00 0.00 0.00 93 1029.4
20230208101415 39 188 1.0 3.0 0.00 0.00 0.00 93 1029.2
20230208100915 39 305 0.0 1.0 0.00 0.00 0.00 93 1029.1
20230208100414 39 151 2.0 3.0 0.00 0.00 0.00 92 1028.9
20230208095913 40 307 0.0 2.0 0.00 0.00 0.00 92 1028.8
20230208095412 40 90 1.0 3.0 0.00 0.00 0.00 91 1028.6
20230208094912 40 219 1.0 6.0 0.00 0.00 0.00 90 1028.7
20230208094411 40 182 2.0 2.0 0.00 0.00 0.00 90 1028.7
20230208093911 40 182 2.0 2.0 0.00 0.00 0.00 91 1028.7
20230208093410 39 45 0.0 1.0 0.00 0.00 0.00 92 1028.6
20230208092909 39 349 0.0 2.0 0.00 0.00 0.00 91 1028.5
20230208092408 39 34 0.0 2.0 0.00 0.00 0.00 91 1028.2
20230208091907 39 317 1.0 1.0 0.00 0.00 0.00 92 1028.3
20230208091406 39 154 3.0 5.0 0.00 0.00 0.00 90 1028.4
20230208090904 40 109 1.0 1.0 0.00 0.00 0.00 90 1028.2
20230208090403 40 105 1.0 2.0 0.00 0.00 0.00 90 1028.4
20230208085902 40 34 2.0 2.0 0.00 0.00 0.00 90 1028.0
20230208085401 40 231 2.0 2.0 0.00 0.00 0.00 89 1028.0
20230208084900 40 131 1.0 1.0 0.00 0.00 0.00 89 1028.1
20230208084401 40 174 2.0 3.0 0.00 0.00 0.00 89 1027.8
20230208083859 41 241 1.0 1.0 0.00 0.00 0.00 88 1027.7
20230208083359 41 174 3.0 3.0 0.00 0.00 0.00 90 1027.9
20230208082857 41 174 3.0 3.0 0.00 0.00 0.00 90 1027.9
20230208082356 41 207 4.0 6.0 0.00 0.00 0.00 90 1028.1
20230208081855 41 6 1.0 2.0 0.00 0.00 0.00 90 1028.1
20230208081354 41 192 2.0 3.0 0.00 0.00 0.00 89 1027.9
20230208080853 41 249 2.0 3.0 0.00 0.00 0.00 90 1028.1
20230208080353 41 197 3.0 5.0 0.00 0.00 0.00 89 1028.2
20230208075851 41 331 0.0 1.0 0.00 0.20 0.20 90 1028.2
20230208075351 41 205 3.0 3.0 0.00 0.20 0.20 91 1028.3
20230208074851 40 323 1.0 1.0 0.00 0.20 0.20 94 1028.1
20230208074350 41 71 0.0 1.0 0.00 0.20 0.20 93 1027.9
20230208073848 41 70 0.0 3.0 0.00 0.20 0.20 92 1027.7
20230208073348 41 163 1.0 3.0 0.00 0.20 0.20 92 1027.6
20230208072846 41 168 1.0 3.0 0.00 0.20 0.20 92 1027.6
20230208072346 41 286 1.0 1.0 0.00 0.20 0.20 93 1027.7
20230208071846 41 301 1.0 3.0 0.00 0.20 0.20 92 1027.7
20230208071344 41 329 2.0 3.0 0.04 0.20 0.20 92 1027.4
20230208070844 41 349 0.0 2.0 0.11 0.20 0.20 92 1027.5
20230208070343 41 268 2.0 3.0 0.07 0.19 0.19 92 1027.6
20230208065841 41 326 0.0 1.0 0.07 0.18 0.18 92 1027.4
20230208065340 41 306 0.0 2.0 0.07 0.18 0.18 91 1027.3
20230208064838 41 47 0.0 1.0 0.00 0.16 0.16 90 1027.1
20230208064338 41 41 1.0 1.0 0.00 0.16 0.16 89 1027.1
20230208063837 41 331 0.0 1.0 0.00 0.16 0.16 89 1027.0
20230208063337 41 310 0.0 1.0 0.00 0.16 0.16 90 1027.0
20230208062836 41 298 1.0 3.0 0.00 0.16 0.16 89 1026.9
20230208062334 41 312 0.0 1.0 0.00 0.16 0.16 90 1026.8
20230208061833 41 326 0.0 1.0 0.00 0.16 0.16 90 1026.9
20230208061333 41 322 0.0 0.0 0.00 0.16 0.16 89 1026.8
20230208060831 41 303 0.0 1.0 0.00 0.16 0.16 89 1026.9
20230208060330 41 299 1.0 1.0 0.00 0.16 0.16 88 1026.8
20230208055829 41 279 0.0 2.0 0.00 0.16 0.16 88 1026.7
20230208055328 41 199 3.0 3.0 0.00 0.16 0.16 87 1026.6
20230208054827 41 261 1.0 5.0 0.00 0.16 0.16 87 1026.6
20230208054325 41 187 3.0 5.0 0.00 0.16 0.16 86 1026.7
20230208053824 41 302 1.0 1.0 0.00 0.16 0.16 88 1026.2
20230208053324 41 135 1.0 3.0 0.00 0.16 0.16 87 1026.2
20230208052823 41 205 3.0 3.0 0.00 0.16 0.16 87 1026.0
20230208052322 42 41 1.0 5.0 0.00 0.16 0.16 87 1026.0
20230208051817 42 208 7.0 8.0 0.00 0.16 0.16 86 1025.8
20230208051317 42 197 1.0 3.0 0.00 0.16 0.16 86 1025.9
20230208050816 42 135 3.0 7.0 0.00 0.16 0.16 85 1025.6
20230208050314 42 257 1.0 5.0 0.00 0.16 0.16 85 1025.6
20230208045815 43 59 1.0 3.0 0.00 0.16 0.16 85 1025.5
20230208045314 42 218 2.0 3.0 0.00 0.16 0.16 87 1025.5
20230208044814 42 315 0.0 3.0 0.00 0.16 0.16 88 1025.5
20230208044314 42 309 1.0 5.0 0.00 0.16 0.16 90 1025.2
20230208043810 42 257 0.0 3.0 0.00 0.16 0.16 90 1025.3
20230208043310 42 326 0.0 2.0 0.00 0.16 0.16 89 1025.1
20230208042809 43 234 3.0 5.0 0.00 0.16 0.16 89 1024.9
20230208042308 43 191 2.0 5.0 0.00 0.16 0.16 90 1024.8
20230208041806 44 244 4.0 8.0 0.00 0.16 0.16 87 1024.7
20230208041305 44 308 2.0 3.0 0.00 0.16 0.16 86 1024.7
20230208040803 44 144 1.0 3.0 0.00 0.16 0.16 86 1024.5
20230208040301 44 152 6.0 7.0 0.00 0.16 0.16 85 1024.5
20230208035759 44 175 4.0 10.0 0.00 0.16 0.16 84 1024.3
20230208035258 44 247 3.0 8.0 0.00 0.16 0.16 85 1024.2
20230208034757 44 192 3.0 6.0 0.00 0.16 0.16 85 1024.3
20230208034255 44 256 4.0 8.0 0.00 0.16 0.16 84 1024.3
20230208033755 44 156 4.0 8.0 0.00 0.16 0.16 84 1024.4
20230208033254 44 238 3.0 5.0 0.00 0.16 0.16 84 1024.4
20230208032754 44 197 4.0 9.0 0.00 0.16 0.16 84 1024.3
20230208032253 44 203 5.0 6.0 0.00 0.16 0.16 83 1024.1
20230208031752 44 242 5.0 9.0 0.00 0.16 0.16 83 1024.1
20230208031252 44 203 3.0 8.0 0.00 0.16 0.16 83 1024.2
20230208030747 44 220 3.0 6.0 0.00 0.16 0.16 84 1024.3
20230208030246 44 203 2.0 3.0 0.00 0.16 0.16 83 1024.2
20230208025745 44 241 2.0 6.0 0.00 0.16 0.16 83 1024.2
20230208025244 44 195 3.0 7.0 0.00 0.16 0.16 83 1024.5
20230208024744 44 242 2.0 3.0 0.00 0.16 0.16 83 1024.5
20230208024244 44 209 2.0 3.0 0.00 0.16 0.16 82 1024.4
20230208023743 44 210 3.0 5.0 0.00 0.16 0.16 81 1024.2
20230208023243 45 148 3.0 5.0 0.00 0.16 0.16 81 1024.2
20230208022742 45 221 4.0 6.0 0.00 0.16 0.16 80 1024.1
20230208022241 45 220 2.0 2.0 0.00 0.16 0.16 81 1024.2
20230208021740 45 244 1.0 1.0 0.00 0.16 0.16 81 1024.3
20230208021240 46 230 2.0 2.0 0.00 0.16 0.16 80 1024.1
20230208020739 46 187 3.0 3.0 0.00 0.16 0.16 81 1023.7
20230208020238 46 197 2.0 2.0 0.00 0.16 0.16 80 1023.9
20230208015737 46 179 1.0 2.0 0.00 0.16 0.16 80 1023.7
20230208015235 46 306 1.0 2.0 0.00 0.16 0.16 79 1023.7
20230208014734 46 213 2.0 5.0 0.00 0.16 0.16 78 1023.7
20230208014233 46 223 4.0 6.0 0.00 0.16 0.16 78 1023.4
20230208013732 46 210 3.0 5.0 0.00 0.16 0.16 78 1023.7
20230208013230 47 201 2.0 3.0 0.00 0.16 0.16 78 1023.5
20230208012728 47 198 4.0 6.0 0.00 0.16 0.16 78 1023.5
20230208012227 47 103 0.0 3.0 0.00 0.16 0.16 77 1023.3
20230208011727 47 233 3.0 6.0 0.00 0.16 0.16 75 1023.1
20230208011226 47 288 1.0 5.0 0.00 0.16 0.16 75 1023.1
20230208010725 48 203 3.0 3.0 0.00 0.16 0.16 74 1022.9
20230208010225 48 279 1.0 5.0 0.00 0.16 0.16 72 1022.8
20230208005723 48 265 3.0 7.0 0.00 0.16 0.16 73 1022.6
20230208005222 49 293 2.0 7.0 0.00 0.16 0.16 73 1022.8
20230208004722 49 312 1.0 6.0 0.00 0.16 0.16 75 1022.8
20230208004221 49 294 2.0 2.0 0.00 0.16 0.16 80 1022.6
20230208003720 49 304 1.0 1.0 0.00 0.16 0.16 80 1022.4
20230208003219 49 206 3.0 3.0 0.00 0.16 0.16 80 1022.3
20230208002718 49 288 1.0 8.0 0.00 0.16 0.16 80 1022.3
20230208002217 49 231 4.0 7.0 0.00 0.16 0.16 80 1022.1
20230208001715 50 273 4.0 8.0 0.00 0.16 0.16 82 1022.2
20230208001214 50 211 5.0 8.0 0.00 0.16 0.16 83 1021.9
20230208000713 50 198 4.0 5.0 0.00 0.16 0.16 83 1022.0
20230208000213 50 228 2.0 5.0 0.00 0.16 0.16 83 1022.1
20230207235712 50 255 3.0 7.0 0.00 0.16 0.16 83 1022.0
20230207235211 50 224 4.0 7.0 0.00 0.16 0.16 84 1021.7
20230207234710 50 199 2.0 6.0 0.00 0.16 0.16 84 1022.2
20230207234209 49 150 2.0 5.0 0.00 0.16 0.16 85 1021.9
20230207233709 49 153 3.0 10.0 0.00 0.16 0.16 85 1021.7
20230207233208 49 208 6.0 10.0 0.00 0.16 0.16 84 1021.6
20230207232707 50 183 3.0 6.0 0.00 0.16 0.16 83 1021.5
20230207232206 50 250 3.0 7.0 0.00 0.16 0.16 83 1021.3
20230207231705 51 107 2.0 8.0 0.00 0.16 0.16 83 1021.2
20230207231203 50 194 7.0 11.0 0.00 0.16 0.16 84 1021.3
20230207230702 50 221 3.0 7.0 0.00 0.16 0.16 87 1021.3
20230207230200 50 198 3.0 7.0 0.00 0.16 0.16 87 1021.2
20230207225700 50 205 3.0 11.0 0.00 0.16 0.16 87 1021.2
20230207225159 50 123 2.0 9.0 0.00 0.16 0.16 88 1021.2
20230207224658 50 220 3.0 10.0 0.00 0.16 0.16 87 1021.3
20230207224158 50 217 4.0 8.0 0.00 0.16 0.16 87 1021.2
20230207223657 50 163 2.0 7.0 0.00 0.16 0.16 87 1020.8
20230207223157 51 226 4.0 8.0 0.00 0.16 0.16 85 1020.8
20230207222656 50 182 5.0 7.0 0.00 0.16 0.16 86 1020.8
20230207222155 49 299 3.0 6.0 0.00 0.16 0.16 89 1020.8
20230207221654 49 233 4.0 8.0 0.00 0.16 0.16 89 1020.9
20230207221153 49 186 7.0 10.0 0.00 0.16 0.16 89 1020.9
20230207220651 49 221 3.0 7.0 0.00 0.16 0.16 90 1020.7
20230207220151 49 192 3.0 5.0 0.00 0.16 0.16 91 1021.1
20230207215649 49 176 3.0 8.0 0.00 0.16 0.16 90 1020.8
20230207215149 49 204 2.0 7.0 0.00 0.16 0.16 91 1020.9
20230207214647 49 191 2.0 7.0 0.00 0.16 0.16 90 1021.2
20230207214147 49 231 2.0 3.0 0.00 0.16 0.16 91 1021.1
20230207213645 49 170 1.0 3.0 0.00 0.16 0.16 91 1021.1
20230207213144 49 275 1.0 5.0 0.00 0.16 0.16 91 1021.0
20230207212644 48 295 3.0 9.0 0.00 0.16 0.16 90 1020.8
20230207212144 48 127 2.0 8.0 0.00 0.16 0.16 91 1020.7
20230207211642 48 217 3.0 5.0 0.04 0.16 0.16 91 1020.8
20230207211141 48 290 1.0 2.0 0.00 0.16 0.16 91 1020.9
20230207210639 48 185 3.0 6.0 0.07 0.16 0.16 90 1020.8